createdAt,value
2023-01-06T00:01:06.730Z,30.67
2023-01-06T00:03:33.902Z,36.40
2023-01-06T00:06:02.955Z,36.30
2023-01-06T00:08:30.404Z,40.17
2023-01-06T00:10:59.654Z,36.53
2023-01-06T00:13:27.038Z,34.95
2023-01-06T00:15:55.837Z,42.83
2023-01-06T00:18:22.992Z,40.45
2023-01-06T00:20:50.481Z,35.20
2023-01-06T00:23:17.617Z,50.92
2023-01-06T00:25:51.375Z,35.88
2023-01-06T00:28:18.583Z,32.58
2023-01-06T00:30:45.698Z,38.35
2023-01-06T00:33:13.216Z,41.13
2023-01-06T00:35:41.558Z,43.42
2023-01-06T00:38:08.929Z,42.40
2023-01-06T00:40:36.494Z,41.70
2023-01-06T00:43:03.788Z,43.10
2023-01-06T00:45:31.024Z,52.28
2023-01-06T00:47:58.140Z,42.25
2023-01-06T00:50:25.357Z,39.90
2023-01-06T00:52:52.524Z,37.17
2023-01-06T00:55:19.779Z,33.22
2023-01-06T00:57:47.527Z,31.70
2023-01-06T01:00:14.798Z,35.67
2023-01-06T01:02:42.112Z,24.65
2023-01-06T01:05:10.409Z,21.10
2023-01-06T01:07:37.605Z,25.73
2023-01-06T01:10:04.916Z,26.20
2023-01-06T01:12:32.135Z,26.38
2023-01-06T01:14:59.183Z,22.38
2023-01-06T01:17:28.491Z,27.65
2023-01-06T01:19:58.043Z,27.83
2023-01-06T01:22:29.249Z,31.05
2023-01-06T01:24:56.586Z,31.75
2023-01-06T01:27:23.886Z,26.25
2023-01-06T01:29:52.831Z,33.13
2023-01-06T01:32:20.111Z,31.77
2023-01-06T01:34:47.160Z,33.40
2023-01-06T01:37:14.530Z,32.83
2023-01-06T01:39:42.231Z,32.00
2023-01-06T01:42:16.127Z,28.55
2023-01-06T01:44:52.501Z,28.80
2023-01-06T01:47:40.035Z,23.27
2023-01-06T01:50:18.671Z,26.05
2023-01-06T01:52:47.522Z,26.33
2023-01-06T01:55:15.301Z,24.33
2023-01-06T01:57:45.673Z,24.42
2023-01-06T02:00:12.965Z,27.55
2023-01-06T02:02:41.018Z,22.45
2023-01-06T02:05:08.422Z,23.83
2023-01-06T02:07:35.548Z,23.13
2023-01-06T02:10:08.875Z,29.58
2023-01-06T02:12:36.185Z,24.65
2023-01-06T02:15:03.507Z,27.70
2023-01-06T02:17:36.687Z,26.73
2023-01-06T02:20:29.775Z,30.85
2023-01-06T02:23:07.899Z,28.60
2023-01-06T02:25:45.214Z,26.45
2023-01-06T02:28:34.870Z,29.38
2023-01-06T02:31:22.048Z,28.65
2023-01-06T02:34:15.636Z,28.45
2023-01-06T02:37:01.529Z,28.40
2023-01-06T02:39:32.404Z,34.90
2023-01-06T02:42:08.591Z,33.67
2023-01-06T02:44:57.816Z,31.02
2023-01-06T02:47:37.867Z,32.47
2023-01-06T02:50:12.444Z,32.75
2023-01-06T02:52:58.281Z,27.83
2023-01-06T02:55:37.716Z,25.35
2023-01-06T02:58:17.176Z,25.42
2023-01-06T03:00:48.437Z,29.42
2023-01-06T03:03:20.074Z,30.17
2023-01-06T03:05:51.472Z,30.58
2023-01-06T03:08:21.662Z,30.08
2023-01-06T03:10:49.782Z,30.52
2023-01-06T03:13:35.969Z,31.50
2023-01-06T03:16:04.682Z,26.70
2023-01-06T03:18:32.893Z,22.33
2023-01-06T03:21:04.819Z,22.77
2023-01-06T03:23:32.487Z,22.30
2023-01-06T03:25:59.695Z,26.83
2023-01-06T03:28:27.499Z,20.95
2023-01-06T03:31:01.587Z,28.73
2023-01-06T03:33:28.912Z,28.88
2023-01-06T03:36:20.660Z,34.67
2023-01-06T03:38:53.576Z,26.67
2023-01-06T03:41:52.605Z,26.50
2023-01-06T03:44:26.244Z,27.38
2023-01-06T03:46:56.277Z,25.33
2023-01-06T03:49:31.588Z,24.70
2023-01-06T03:52:28.550Z,27.80
2023-01-06T03:55:14.783Z,23.02
2023-01-06T03:57:44.559Z,23.95
2023-01-06T04:00:15.993Z,24.30
2023-01-06T04:02:51.851Z,25.90
2023-01-06T04:05:24.684Z,26.55
2023-01-06T04:07:52.455Z,22.98
2023-01-06T04:10:21.746Z,22.83
2023-01-06T04:12:51.829Z,19.80
2023-01-06T04:15:26.541Z,20.55
2023-01-06T04:17:55.469Z,19.95
2023-01-06T04:20:27.264Z,19.60
2023-01-06T04:23:14.625Z,17.63
2023-01-06T04:25:44.843Z,17.92
2023-01-06T04:28:25.251Z,20.65
2023-01-06T04:30:53.092Z,29.33
2023-01-06T04:33:20.305Z,21.02
2023-01-06T04:35:49.319Z,28.95
2023-01-06T04:38:19.362Z,22.60
2023-01-06T04:40:46.563Z,25.88
2023-01-06T04:43:18.306Z,25.92
2023-01-06T04:45:45.431Z,23.52
2023-01-06T04:48:13.156Z,26.73
2023-01-06T04:50:40.360Z,21.10
2023-01-06T04:53:07.872Z,28.00
2023-01-06T04:55:37.847Z,24.92
2023-01-06T04:58:05.304Z,29.70
2023-01-06T05:00:32.331Z,22.92
2023-01-06T05:02:59.413Z,22.10
2023-01-06T05:05:26.503Z,22.95
2023-01-06T05:07:54.269Z,23.95
2023-01-06T05:10:23.528Z,24.55
2023-01-06T05:12:50.660Z,24.00
2023-01-06T05:15:17.942Z,23.30
2023-01-06T05:17:45.230Z,25.58
2023-01-06T05:20:12.421Z,24.58
2023-01-06T05:22:39.753Z,30.90
2023-01-06T05:25:07.358Z,28.98
2023-01-06T05:27:34.587Z,25.20
2023-01-06T05:30:01.869Z,31.05
2023-01-06T05:32:29.059Z,23.58
2023-01-06T05:34:58.537Z,22.85
2023-01-06T05:37:27.892Z,27.23
2023-01-06T05:39:54.921Z,29.33
2023-01-06T05:42:22.111Z,26.17
2023-01-06T05:44:49.220Z,23.48
2023-01-06T05:47:16.374Z,23.25
2023-01-06T05:49:43.589Z,25.52
2023-01-06T05:52:10.689Z,18.85
2023-01-06T05:54:37.730Z,21.42
2023-01-06T05:57:07.372Z,20.02
2023-01-06T05:59:34.416Z,21.00
2023-01-06T06:02:01.630Z,19.58
2023-01-06T06:04:28.737Z,22.50
2023-01-06T06:06:57.036Z,21.55
2023-01-06T06:09:24.198Z,21.55
2023-01-06T06:11:52.196Z,20.98
2023-01-06T06:14:19.420Z,19.13
2023-01-06T06:16:46.693Z,18.88
2023-01-06T06:19:15.076Z,20.52
2023-01-06T06:21:42.167Z,23.98
2023-01-06T06:24:09.353Z,22.42
2023-01-06T06:26:36.439Z,22.42
2023-01-06T06:29:05.541Z,24.63
2023-01-06T06:31:32.742Z,23.98
2023-01-06T06:34:01.246Z,27.77
2023-01-06T06:36:28.782Z,36.13
2023-01-06T06:38:56.086Z,38.88
2023-01-06T06:41:23.955Z,43.63
2023-01-06T06:43:51.673Z,43.63
2023-01-06T06:46:21.517Z,42.03
2023-01-06T06:48:50.537Z,48.20
2023-01-06T06:51:19.443Z,44.83
2023-01-06T06:53:46.690Z,51.85
2023-01-06T06:56:14.725Z,42.35
2023-01-06T06:58:42.377Z,41.10
2023-01-06T07:01:11.104Z,47.97
2023-01-06T07:03:38.915Z,38.03
2023-01-06T07:06:07.669Z,32.92
2023-01-06T07:08:34.878Z,29.55
2023-01-06T07:11:02.649Z,24.42
2023-01-06T07:13:29.748Z,27.88
2023-01-06T07:15:57.014Z,25.50
2023-01-06T07:18:24.213Z,23.45
2023-01-06T07:20:53.807Z,25.88
2023-01-06T07:23:21.640Z,23.52
2023-01-06T07:25:52.882Z,30.42
2023-01-06T07:28:20.127Z,32.35
2023-01-06T07:30:47.654Z,27.52
2023-01-06T07:33:15.048Z,27.92
2023-01-06T07:35:42.087Z,43.30
2023-01-06T07:38:10.186Z,37.83
2023-01-06T07:40:37.518Z,34.50
2023-01-06T07:43:05.894Z,30.73
2023-01-06T07:45:33.267Z,34.30
2023-01-06T07:48:00.836Z,36.13
2023-01-06T07:50:28.489Z,37.13
2023-01-06T07:52:58.266Z,26.02
2023-01-06T07:55:25.767Z,25.45
2023-01-06T07:57:53.121Z,22.05
2023-01-06T08:00:20.434Z,16.23
2023-01-06T08:02:47.706Z,26.75
2023-01-06T08:05:14.885Z,16.73
2023-01-06T08:07:42.092Z,18.77
2023-01-06T08:10:09.343Z,24.50
2023-01-06T08:12:37.443Z,21.83
2023-01-06T08:15:04.880Z,20.42
2023-01-06T08:17:32.127Z,19.88
2023-01-06T08:19:59.227Z,30.88
2023-01-06T08:22:26.457Z,38.78
2023-01-06T08:24:53.727Z,42.67
2023-01-06T08:27:21.044Z,54.10
2023-01-06T08:29:50.325Z,51.50
2023-01-06T08:32:17.590Z,47.17
2023-01-06T08:34:44.771Z,48.65
2023-01-06T08:37:12.047Z,42.92
2023-01-06T08:39:39.150Z,49.65
2023-01-06T08:42:06.358Z,39.70
2023-01-06T08:44:33.484Z,49.05
2023-01-06T08:47:00.683Z,37.15
2023-01-06T08:49:27.942Z,33.65
2023-01-06T08:51:55.154Z,36.88
2023-01-06T08:54:22.267Z,41.78
2023-01-06T08:56:49.401Z,31.83
2023-01-06T08:59:18.433Z,38.15
2023-01-06T09:01:45.818Z,36.38
2023-01-06T09:04:13.273Z,48.30
2023-01-06T09:06:42.496Z,37.15
2023-01-06T09:09:10.047Z,38.03
2023-01-06T09:11:37.612Z,36.90
2023-01-06T09:14:04.743Z,35.00
2023-01-06T09:16:31.969Z,41.20
2023-01-06T09:18:59.225Z,34.90
2023-01-06T09:21:26.502Z,52.70
2023-01-06T09:23:53.752Z,44.70
2023-01-06T09:26:22.200Z,56.50
2023-01-06T09:28:49.544Z,32.60
2023-01-06T09:31:18.446Z,39.65
2023-01-06T09:33:45.747Z,33.67
2023-01-06T09:36:12.796Z,43.35
2023-01-06T09:38:40.097Z,32.63
2023-01-06T09:41:22.237Z,41.40
2023-01-06T09:43:49.408Z,39.22
2023-01-06T09:46:18.451Z,41.90
2023-01-06T09:49:11.880Z,45.08
2023-01-06T09:51:39.297Z,40.97
2023-01-06T09:54:13.495Z,32.95
2023-01-06T09:56:44.960Z,35.60
2023-01-06T09:59:15.167Z,27.45
2023-01-06T10:01:45.649Z,30.83
2023-01-06T10:04:39.044Z,34.13
2023-01-06T10:07:29.534Z,26.40
2023-01-06T10:10:16.950Z,27.77
2023-01-06T10:12:48.695Z,23.02
2023-01-06T10:15:15.982Z,20.63
2023-01-06T10:17:43.284Z,18.75
2023-01-06T10:20:30.805Z,24.88
2023-01-06T10:23:05.328Z,25.00
2023-01-06T10:25:38.004Z,20.23
2023-01-06T10:28:19.869Z,25.27
2023-01-06T10:30:50.589Z,27.48
2023-01-06T10:33:20.770Z,25.13
2023-01-06T10:35:50.429Z,15.70
2023-01-06T10:38:18.850Z,20.35
2023-01-06T10:40:46.039Z,20.08
2023-01-06T10:43:13.982Z,19.08
2023-01-06T10:45:44.768Z,20.15
2023-01-06T10:48:23.035Z,22.63
2023-01-06T10:50:50.249Z,20.48
2023-01-06T10:53:17.514Z,20.58
2023-01-06T10:55:44.600Z,18.00
2023-01-06T10:58:23.717Z,18.27
2023-01-06T11:00:58.443Z,16.42
2023-01-06T11:03:33.273Z,15.68
2023-01-06T11:06:03.885Z,18.33
2023-01-06T11:08:31.264Z,17.75
2023-01-06T11:10:58.894Z,12.60
2023-01-06T11:13:28.744Z,18.98
2023-01-06T11:15:57.625Z,16.45
2023-01-06T11:18:29.568Z,11.40
2023-01-06T11:21:06.008Z,14.27
2023-01-06T11:23:33.184Z,19.05
2023-01-06T11:26:28.374Z,20.25
2023-01-06T11:28:55.808Z,25.98
2023-01-06T11:31:26.172Z,17.85
2023-01-06T11:33:55.461Z,19.48
2023-01-06T11:36:32.908Z,13.98
2023-01-06T11:39:01.992Z,16.67
2023-01-06T11:41:33.887Z,16.98
2023-01-06T11:44:12.806Z,15.57
2023-01-06T11:46:46.154Z,15.15
2023-01-06T11:49:16.967Z,13.35
2023-01-06T11:51:44.387Z,17.98
2023-01-06T11:54:25.891Z,16.55
2023-01-06T11:57:11.544Z,18.55
2023-01-06T12:00:06.051Z,16.58
2023-01-06T12:02:57.130Z,16.77
2023-01-06T12:05:53.679Z,15.63
2023-01-06T12:08:20.985Z,15.55
2023-01-06T12:10:50.867Z,17.35
2023-01-06T12:13:18.142Z,21.20
2023-01-06T12:15:47.353Z,31.20
2023-01-06T12:18:17.194Z,18.55
2023-01-06T12:20:46.936Z,18.52
2023-01-06T12:23:23.054Z,17.00
2023-01-06T12:25:51.626Z,23.15
2023-01-06T12:28:21.848Z,18.73
2023-01-06T12:30:51.326Z,21.35
2023-01-06T12:33:38.851Z,16.00
2023-01-06T12:36:12.723Z,17.13
2023-01-06T12:39:02.222Z,11.90
2023-01-06T12:41:38.352Z,11.63
2023-01-06T12:44:24.193Z,9.85
2023-01-06T12:46:57.042Z,15.77
2023-01-06T12:49:33.478Z,14.60
2023-01-06T12:52:04.210Z,14.98
2023-01-06T12:54:32.822Z,14.88
2023-01-06T12:57:05.305Z,15.13
2023-01-06T12:59:45.745Z,15.48
2023-01-06T13:02:31.835Z,16.67
2023-01-06T13:05:17.230Z,15.15
2023-01-06T13:08:03.193Z,19.17
2023-01-06T13:13:11.417Z,24.17
2023-01-06T13:15:40.938Z,26.80
2023-01-06T13:18:10.991Z,20.83
2023-01-06T13:20:43.925Z,22.30
2023-01-06T13:23:29.734Z,22.90
2023-01-06T13:26:06.415Z,25.35
2023-01-06T13:28:48.333Z,22.67
2023-01-06T13:31:33.342Z,27.73
2023-01-06T13:34:15.483Z,24.97
2023-01-06T13:36:54.682Z,20.35
2023-01-06T13:39:34.324Z,27.50
2023-01-06T13:42:03.159Z,17.20
2023-01-06T13:44:32.346Z,20.02
2023-01-06T13:47:04.764Z,21.48
2023-01-06T13:49:32.117Z,22.40
2023-01-06T13:52:00.679Z,18.48
2023-01-06T13:54:39.752Z,20.05
2023-01-06T13:57:21.848Z,25.00
2023-01-06T13:59:49.108Z,27.08
2023-01-06T14:02:34.597Z,24.10
2023-01-06T14:05:24.776Z,30.38
2023-01-06T14:07:53.292Z,19.20
2023-01-06T14:10:36.177Z,26.42
2023-01-06T14:13:05.033Z,24.15
2023-01-06T14:15:33.237Z,24.80
2023-01-06T14:18:01.147Z,24.02
2023-01-06T14:20:32.801Z,22.63
2023-01-06T14:23:01.158Z,19.60
2023-01-06T14:25:28.911Z,20.52
2023-01-06T14:27:59.065Z,22.92
2023-01-06T14:30:30.733Z,23.27
2023-01-06T14:33:01.629Z,24.25
2023-01-06T14:35:35.807Z,24.17
2023-01-06T14:38:04.831Z,20.88
2023-01-06T14:40:48.668Z,24.80
2023-01-06T14:43:34.952Z,28.70
2023-01-06T14:46:28.460Z,23.10
2023-01-06T14:49:06.347Z,28.77
2023-01-06T14:51:34.805Z,28.15
2023-01-06T14:54:04.673Z,25.40
2023-01-06T14:56:33.283Z,18.77
2023-01-06T14:59:14.160Z,23.00
2023-01-06T15:01:43.147Z,23.95
2023-01-06T15:04:24.680Z,21.90
2023-01-06T15:07:02.859Z,25.73
2023-01-06T15:09:30.179Z,25.58
2023-01-06T15:11:57.520Z,29.58
2023-01-06T15:14:29.401Z,20.95
2023-01-06T15:16:57.709Z,22.35
2023-01-06T15:19:25.050Z,24.67
2023-01-06T15:21:52.680Z,21.77
2023-01-06T15:24:21.783Z,21.38
2023-01-06T15:26:49.874Z,34.78
2023-01-06T15:29:18.476Z,24.63
2023-01-06T15:31:46.140Z,26.35
2023-01-06T15:34:15.246Z,25.25
2023-01-06T15:36:43.412Z,27.33
2023-01-06T15:39:15.427Z,32.08
2023-01-06T15:41:43.665Z,26.45
2023-01-06T15:44:37.008Z,24.13
2023-01-06T15:47:13.268Z,33.33
2023-01-06T15:49:43.176Z,31.75
2023-01-06T15:52:27.039Z,36.53
2023-01-06T15:54:56.089Z,35.38
2023-01-06T15:57:24.051Z,37.53
2023-01-06T16:00:02.068Z,40.03
2023-01-06T16:02:32.358Z,55.35
2023-01-06T16:05:00.858Z,70.13
2023-01-06T16:07:41.992Z,61.70
2023-01-06T16:10:32.456Z,76.00
2023-01-06T16:13:05.873Z,65.03
2023-01-06T16:15:44.943Z,73.28
2023-01-06T16:18:13.243Z,66.85
2023-01-06T16:20:40.414Z,64.05
2023-01-06T16:23:07.531Z,75.63
2023-01-06T16:25:35.703Z,81.57
2023-01-06T16:28:04.666Z,81.82
2023-01-06T16:30:36.847Z,73.68
2023-01-06T16:33:04.787Z,73.85
2023-01-06T16:35:33.433Z,78.65
2023-01-06T16:38:00.863Z,77.80
2023-01-06T16:40:29.100Z,58.58
2023-01-06T16:43:00.691Z,70.60
2023-01-06T16:45:44.539Z,71.20
2023-01-06T16:48:15.432Z,47.40
2023-01-06T16:50:45.168Z,53.03
2023-01-06T16:53:14.404Z,49.75
2023-01-06T16:55:42.292Z,47.33
2023-01-06T16:58:15.770Z,47.45
2023-01-06T17:00:48.324Z,48.13
2023-01-06T17:03:17.295Z,43.60
2023-01-06T17:05:44.655Z,46.42
2023-01-06T17:08:13.960Z,46.10
2023-01-06T17:10:41.593Z,49.55
2023-01-06T17:13:33.132Z,48.80
2023-01-06T17:16:22.294Z,44.97
2023-01-06T17:18:51.338Z,44.17
2023-01-06T17:21:20.584Z,42.38
2023-01-06T17:23:59.105Z,45.05
2023-01-06T17:26:27.163Z,43.80
2023-01-06T17:28:56.818Z,39.97
2023-01-06T17:31:26.002Z,42.90
2023-01-06T17:33:53.862Z,37.92
2023-01-06T17:36:24.769Z,42.30
2023-01-06T17:38:52.583Z,39.03
2023-01-06T17:41:19.980Z,35.40
2023-01-06T17:43:47.680Z,41.92
2023-01-06T17:46:24.616Z,38.80
2023-01-06T17:48:58.071Z,37.88
2023-01-06T17:51:25.425Z,46.67
2023-01-06T17:54:11.013Z,38.47
2023-01-06T17:56:39.531Z,37.78
2023-01-06T17:59:14.743Z,37.65
2023-01-06T18:01:42.089Z,40.50
2023-01-06T18:04:12.745Z,42.05
2023-01-06T18:06:42.118Z,36.42
2023-01-06T18:09:15.548Z,42.70
2023-01-06T18:11:46.998Z,42.20
2023-01-06T18:14:22.427Z,37.78
2023-01-06T18:16:54.492Z,36.88
2023-01-06T18:19:33.469Z,34.13
2023-01-06T18:22:02.523Z,39.65
2023-01-06T18:24:32.485Z,37.13
2023-01-06T18:27:00.649Z,37.05
2023-01-06T18:29:31.655Z,36.42
2023-01-06T18:32:16.100Z,35.67
2023-01-06T18:34:44.161Z,36.10
2023-01-06T18:37:11.340Z,33.88
2023-01-06T18:39:40.127Z,35.13
2023-01-06T18:42:22.440Z,30.38
2023-01-06T18:44:50.329Z,39.72
2023-01-06T18:47:18.853Z,33.47
2023-01-06T18:49:46.441Z,34.15
2023-01-06T18:52:32.233Z,34.42
2023-01-06T18:55:01.125Z,31.60
2023-01-06T18:57:30.316Z,39.25
2023-01-06T19:00:12.739Z,33.97
2023-01-06T19:02:39.975Z,31.95
2023-01-06T19:05:13.583Z,38.22
2023-01-06T19:07:40.930Z,39.17
2023-01-06T19:10:20.365Z,39.15
2023-01-06T19:12:47.854Z,44.35
2023-01-06T19:15:17.902Z,42.05
2023-01-06T19:17:46.158Z,37.40
2023-01-06T19:20:16.291Z,34.05
2023-01-06T19:22:43.617Z,38.58
2023-01-06T19:25:25.816Z,41.10
2023-01-06T19:27:55.791Z,45.53
2023-01-06T19:30:22.911Z,38.45
2023-01-06T19:32:50.215Z,36.25
2023-01-06T19:35:22.930Z,38.00
2023-01-06T19:38:01.669Z,33.78
2023-01-06T19:40:30.564Z,34.97
2023-01-06T19:43:17.856Z,33.65
2023-01-06T19:45:45.480Z,37.53
2023-01-06T19:48:24.838Z,40.00
2023-01-06T19:50:57.020Z,51.42
2023-01-06T19:53:44.569Z,45.53
2023-01-06T19:56:23.268Z,61.90
2023-01-06T19:58:52.518Z,62.80
2023-01-06T20:01:19.808Z,67.57
2023-01-06T20:03:47.570Z,72.25
2023-01-06T20:06:15.290Z,70.03
2023-01-06T20:08:43.337Z,70.43
2023-01-06T20:11:11.353Z,65.40
2023-01-06T20:13:38.698Z,48.95
2023-01-06T20:16:06.300Z,47.67
2023-01-06T20:18:33.533Z,47.70
2023-01-06T20:21:00.709Z,55.20
2023-01-06T20:23:27.880Z,43.83
2023-01-06T20:25:55.192Z,36.35
2023-01-06T20:28:22.453Z,47.35
2023-01-06T20:30:49.658Z,39.17
2023-01-06T20:33:17.026Z,33.10
2023-01-06T20:35:44.309Z,39.70
2023-01-06T20:38:14.651Z,44.33
2023-01-06T20:40:43.329Z,38.38
2023-01-06T20:43:11.100Z,51.80
2023-01-06T20:45:38.284Z,57.58
2023-01-06T20:48:05.549Z,60.60
2023-01-06T20:50:34.154Z,85.43
2023-01-06T20:53:01.428Z,83.65
2023-01-06T20:55:28.667Z,70.22
2023-01-06T20:57:58.724Z,84.25
2023-01-06T21:00:25.871Z,65.30
2023-01-06T21:02:53.097Z,60.88
2023-01-06T21:05:23.217Z,75.22
2023-01-06T21:07:50.319Z,68.90
2023-01-06T21:10:17.580Z,64.70
2023-01-06T21:12:44.869Z,76.65
2023-01-06T21:15:12.065Z,63.10
2023-01-06T21:17:39.353Z,59.30
2023-01-06T21:20:07.765Z,48.58
2023-01-06T21:22:34.898Z,62.15
2023-01-06T21:25:02.266Z,74.88
2023-01-06T21:27:29.438Z,92.88
2023-01-06T21:29:56.650Z,77.13
2023-01-06T21:32:23.908Z,77.72
2023-01-06T21:34:51.750Z,74.65
2023-01-06T21:37:19.001Z,84.82
2023-01-06T21:39:47.956Z,91.50
2023-01-06T21:42:34.998Z,86.28
2023-01-06T21:45:02.239Z,94.60
2023-01-06T21:47:29.365Z,90.55
2023-01-06T21:49:56.605Z,82.30
2023-01-06T21:52:23.729Z,84.60
2023-01-06T21:54:50.975Z,73.78
2023-01-06T21:57:18.116Z,73.07
2023-01-06T21:59:45.248Z,68.82
2023-01-06T22:02:14.308Z,64.05
2023-01-06T22:04:41.401Z,64.20
2023-01-06T22:07:12.097Z,60.63
2023-01-06T22:09:39.916Z,60.80
2023-01-06T22:12:07.457Z,51.90
2023-01-06T22:14:34.889Z,60.17
2023-01-06T22:17:02.369Z,53.20
2023-01-06T22:19:29.977Z,55.22
2023-01-06T22:21:58.689Z,62.05
2023-01-06T22:24:26.435Z,56.85
2023-01-06T22:26:53.679Z,54.20
2023-01-06T22:29:20.823Z,63.33
2023-01-06T22:31:48.089Z,66.43
2023-01-06T22:34:17.196Z,67.20
2023-01-06T22:36:45.376Z,85.53
2023-01-06T22:39:12.511Z,86.18
2023-01-06T22:41:39.830Z,70.00
2023-01-06T22:44:06.944Z,73.47
2023-01-06T22:46:34.293Z,49.95
2023-01-06T22:49:01.477Z,42.70
2023-01-06T22:51:28.918Z,40.28
2023-01-06T22:53:57.319Z,34.78
2023-01-06T22:56:24.787Z,34.85
2023-01-06T22:58:51.981Z,33.10
2023-01-06T23:01:19.267Z,34.67
2023-01-06T23:03:46.535Z,41.90
2023-01-06T23:06:14.274Z,36.38
2023-01-06T23:08:51.115Z,30.13
2023-01-06T23:11:28.228Z,54.78
2023-01-06T23:13:56.943Z,51.65
2023-01-06T23:16:26.893Z,69.47
2023-01-06T23:18:54.643Z,62.15
2023-01-06T23:21:23.178Z,53.08
2023-01-06T23:23:51.160Z,51.58
2023-01-06T23:26:23.845Z,53.47
2023-01-06T23:28:51.671Z,54.80
2023-01-06T23:31:20.944Z,51.42
2023-01-06T23:33:49.467Z,56.30
2023-01-06T23:36:17.464Z,49.67
2023-01-06T23:38:45.018Z,56.03
2023-01-06T23:41:13.194Z,57.10
2023-01-06T23:43:40.396Z,54.35
2023-01-06T23:46:08.722Z,41.70
2023-01-06T23:48:36.445Z,45.85
2023-01-06T23:51:04.296Z,49.17
2023-01-06T23:53:31.961Z,41.33
2023-01-06T23:56:00.531Z,44.97
2023-01-06T23:58:28.490Z,41.10
